Terminal Aerodrome Forecast
Issued by NWS Des Moines, IA

Home | Current Version | Previous Version | Text Only | Print | Product List | Glossary On
Versions: 1 2 3 4 5 6 7 8 9 10 11 12 13 14 15 16 17 18 19 20 21 22 23 24 25 26 27 28 29 30 31 32 33 34 35 36 37 38 39 40
651
FTUS43 KDMX 211934 AAB
TAFALO
TAF AMD
KALO 211934Z 2120/2218 19013G22KT P6SM VCSH SCT015 OVC040
      TEMPO 2120/2123 3SM BR BKN015 OVC020
     FM220200 18012KT 6SM -SHRA BR OVC010
      TEMPO 2202/2204 4SM -TSRA OVC009CB
     FM220600 21008KT P6SM VCTS OVC025CB
     FM221100 28005KT P6SM VCSH OVC015=

USA.gov is the U.S. government's official web portal to all federal, state and local government web resources and services.